createdAt,value
2023-08-17T00:01:50.558Z,100388.53
2023-08-17T00:04:53.479Z,100398.06
2023-08-17T00:07:56.268Z,100403.00
2023-08-17T00:10:59.144Z,100406.22
2023-08-17T00:14:01.883Z,100420.63
2023-08-17T00:17:04.803Z,100411.22
2023-08-17T00:20:08.292Z,100410.34
2023-08-17T00:23:11.596Z,100405.50
2023-08-17T00:26:15.457Z,100408.75
2023-08-17T00:29:18.526Z,100406.31
2023-08-17T00:32:21.277Z,100403.41
2023-08-17T00:35:24.031Z,100409.91
2023-08-17T00:38:26.861Z,100401.81
2023-08-17T00:41:29.943Z,100400.88
2023-08-17T00:44:32.686Z,100392.81
2023-08-17T00:47:35.573Z,100392.75
2023-08-17T00:50:40.587Z,100386.13
2023-08-17T00:53:43.853Z,100394.44
2023-08-17T00:56:46.768Z,100384.47
2023-08-17T01:00:03.078Z,100382.16
2023-08-17T01:03:07.284Z,100382.56
2023-08-17T01:06:10.770Z,100393.63
2023-08-17T01:09:13.605Z,100393.63
2023-08-17T01:12:26.067Z,100381.81
2023-08-17T01:15:36.446Z,100392.03
2023-08-17T01:18:42.310Z,100398.16
2023-08-17T01:21:58.175Z,100394.50
2023-08-17T01:25:01.204Z,100389.09
2023-08-17T01:28:05.554Z,100392.63
2023-08-17T01:31:32.912Z,100395.50
2023-08-17T01:34:45.893Z,100395.03
2023-08-17T01:37:51.896Z,100397.47
2023-08-17T01:40:55.725Z,100401.25
2023-08-17T01:44:00.550Z,100392.22
2023-08-17T01:47:04.548Z,100390.31
2023-08-17T01:50:07.516Z,100397.28
2023-08-17T01:53:11.053Z,100373.78
2023-08-17T01:56:13.849Z,100394.72
2023-08-17T01:59:16.706Z,100399.41
2023-08-17T02:02:20.493Z,100384.34
2023-08-17T02:05:23.244Z,100388.91
2023-08-17T02:08:26.549Z,100383.31
2023-08-17T02:11:30.064Z,100379.72
2023-08-17T02:14:32.836Z,100380.06
2023-08-17T02:17:35.729Z,100378.22
2023-08-17T02:20:38.961Z,100377.91
2023-08-17T02:23:41.712Z,100364.84
2023-08-17T02:26:44.488Z,100368.75
2023-08-17T02:29:47.290Z,100363.59
2023-08-17T02:32:50.636Z,100348.94
2023-08-17T02:35:54.022Z,100357.19
2023-08-17T02:38:56.789Z,100363.59
2023-08-17T02:41:59.557Z,100363.44
2023-08-17T02:45:02.253Z,100363.91
2023-08-17T02:48:06.119Z,100366.56
2023-08-17T02:51:08.932Z,100366.13
2023-08-17T02:54:12.042Z,100376.00
2023-08-17T02:57:14.837Z,100367.47
2023-08-17T03:00:17.635Z,100365.19
2023-08-17T03:03:22.194Z,100362.34
2023-08-17T03:06:26.268Z,100361.09
2023-08-17T03:09:29.301Z,100362.25
2023-08-17T03:12:32.445Z,100370.63
2023-08-17T03:15:35.359Z,100365.09
2023-08-17T03:18:38.092Z,100361.63
2023-08-17T03:21:40.845Z,100366.91
2023-08-17T03:24:43.860Z,100364.63
2023-08-17T03:27:47.034Z,100363.50
2023-08-17T03:30:50.973Z,100358.75
2023-08-17T03:33:53.683Z,100372.38
2023-08-17T03:36:56.471Z,100376.72
2023-08-17T03:40:01.699Z,100389.53
2023-08-17T03:43:06.575Z,100393.34
2023-08-17T03:46:09.857Z,100384.41
2023-08-17T03:49:12.735Z,100386.59
2023-08-17T03:52:15.574Z,100387.22
2023-08-17T03:55:18.396Z,100385.03
2023-08-17T03:58:21.144Z,100390.78
2023-08-17T04:01:23.946Z,100401.00
2023-08-17T04:04:26.970Z,100408.09
2023-08-17T04:07:30.192Z,100396.00
2023-08-17T04:10:33.211Z,100390.88
2023-08-17T04:13:35.929Z,100405.00
2023-08-17T04:16:38.680Z,100401.16
2023-08-17T04:19:41.469Z,100414.53
2023-08-17T04:22:46.134Z,100411.78
2023-08-17T04:25:49.486Z,100416.53
2023-08-17T04:28:52.209Z,100424.03
2023-08-17T04:31:55.190Z,100424.31
2023-08-17T04:34:57.994Z,100422.28
2023-08-17T04:38:00.930Z,100417.03
2023-08-17T04:41:04.549Z,100427.63
2023-08-17T04:44:10.532Z,100424.00
2023-08-17T04:47:13.379Z,100427.84
2023-08-17T04:50:17.677Z,100420.47
2023-08-17T04:53:20.770Z,100429.84
2023-08-17T04:56:23.680Z,100431.72
2023-08-17T04:59:26.465Z,100429.13
2023-08-17T05:02:29.329Z,100427.03
2023-08-17T05:05:32.233Z,100439.66
2023-08-17T05:08:35.891Z,100430.63
2023-08-17T05:11:38.965Z,100430.41
2023-08-17T05:14:41.775Z,100419.31
2023-08-17T05:17:44.582Z,100419.41
2023-08-17T05:20:48.570Z,100409.09
2023-08-17T05:23:51.333Z,100422.41
2023-08-17T05:26:55.353Z,100408.97
2023-08-17T05:29:58.159Z,100408.28
2023-08-17T05:33:01.004Z,100419.63
2023-08-17T05:36:04.582Z,100428.13
2023-08-17T05:39:08.112Z,100423.66
2023-08-17T05:42:11.246Z,100420.78
2023-08-17T05:45:14.043Z,100423.41
2023-08-17T05:48:17.127Z,100408.63
2023-08-17T05:51:19.919Z,100419.53
2023-08-17T05:54:22.638Z,100419.97
2023-08-17T05:57:25.489Z,100418.69
2023-08-17T06:00:28.470Z,100416.38
2023-08-17T06:03:31.277Z,100413.75
2023-08-17T06:06:34.478Z,100412.13
2023-08-17T06:09:37.153Z,100412.28
2023-08-17T06:12:39.904Z,100417.56
2023-08-17T06:15:42.651Z,100424.44
2023-08-17T06:18:45.422Z,100416.59
2023-08-17T06:21:48.141Z,100412.09
2023-08-17T06:24:50.857Z,100412.72
2023-08-17T06:27:53.646Z,100409.31
2023-08-17T06:30:56.988Z,100404.44
2023-08-17T06:34:00.049Z,100399.50
2023-08-17T06:37:04.704Z,100395.81
2023-08-17T06:40:09.002Z,100395.94
2023-08-17T06:43:11.862Z,100397.34
2023-08-17T06:46:14.663Z,100393.78
2023-08-17T06:49:17.579Z,100403.72
2023-08-17T06:52:20.329Z,100409.34
2023-08-17T06:55:23.094Z,100413.06
2023-08-17T06:58:25.789Z,100412.31
2023-08-17T07:01:28.523Z,100414.19
2023-08-17T07:04:31.410Z,100411.72
2023-08-17T07:07:34.512Z,100411.06
2023-08-17T07:10:37.403Z,100411.25
2023-08-17T07:13:40.144Z,100416.41
2023-08-17T07:16:43.408Z,100413.91
2023-08-17T07:20:12.486Z,100389.28
2023-08-17T07:23:09.042Z,100417.25
2023-08-17T07:26:13.046Z,100419.09
2023-08-17T07:29:15.951Z,100423.28
2023-08-17T07:32:19.595Z,100427.72
2023-08-17T07:35:22.443Z,100422.19
2023-08-17T07:38:25.529Z,100419.78
2023-08-17T07:41:28.424Z,100427.06
2023-08-17T07:44:32.865Z,100428.72
2023-08-17T07:47:39.611Z,100426.06
2023-08-17T07:50:42.398Z,100420.59
2023-08-17T07:53:45.147Z,100421.28
2023-08-17T07:56:47.879Z,100429.25
2023-08-17T07:59:51.949Z,100435.84
2023-08-17T08:02:54.754Z,100429.34
2023-08-17T08:05:57.451Z,100428.28
2023-08-17T08:09:00.117Z,100434.03
2023-08-17T08:12:03.598Z,100434.72
2023-08-17T08:15:06.788Z,100424.81
2023-08-17T08:18:10.688Z,100432.78
2023-08-17T08:21:13.565Z,100426.75
2023-08-17T08:24:26.515Z,100426.31
2023-08-17T08:27:33.633Z,100422.09
2023-08-17T08:30:36.660Z,100430.13
2023-08-17T08:33:39.410Z,100424.78
2023-08-17T08:36:42.094Z,100423.19
2023-08-17T08:39:56.159Z,100420.75
2023-08-17T08:42:59.225Z,100427.03
2023-08-17T08:46:02.687Z,100422.50
2023-08-17T08:49:07.880Z,100411.81
2023-08-17T08:52:17.208Z,100422.91
2023-08-17T08:55:22.769Z,100408.47
2023-08-17T08:58:26.875Z,100411.06
2023-08-17T09:01:34.818Z,100411.66
2023-08-17T09:04:37.697Z,100419.34
2023-08-17T09:07:41.084Z,100408.94
2023-08-17T09:10:43.944Z,100409.19
2023-08-17T09:13:46.732Z,100412.66
2023-08-17T09:16:49.457Z,100394.44
2023-08-17T09:19:52.444Z,100402.69
2023-08-17T09:22:56.007Z,100403.94
2023-08-17T09:26:05.870Z,100396.22
2023-08-17T09:29:19.656Z,100397.28
2023-08-17T09:32:22.453Z,100394.78
2023-08-17T09:35:27.174Z,100381.41
2023-08-17T09:38:30.854Z,100395.53
2023-08-17T09:41:42.113Z,100394.66
2023-08-17T09:44:47.222Z,100389.09
2023-08-17T09:47:50.098Z,100390.31
2023-08-17T09:50:52.881Z,100393.69
2023-08-17T09:54:00.234Z,100379.84
2023-08-17T09:57:03.697Z,100384.94
2023-08-17T10:00:08.474Z,100383.75
2023-08-17T10:03:12.031Z,100377.47
2023-08-17T10:06:26.591Z,100383.38
2023-08-17T10:09:39.836Z,100379.03
2023-08-17T10:13:07.666Z,100366.03
2023-08-17T10:16:18.786Z,100366.88
2023-08-17T10:19:38.496Z,100366.88
2023-08-17T10:22:56.412Z,100359.78
2023-08-17T10:26:01.701Z,100371.72
2023-08-17T10:29:12.663Z,100364.75
2023-08-17T10:32:17.407Z,100361.81
2023-08-17T10:35:20.517Z,100362.78
2023-08-17T10:38:26.130Z,100360.78
2023-08-17T10:41:28.965Z,100369.75
2023-08-17T10:44:49.871Z,100362.06
2023-08-17T10:48:07.105Z,100363.47
2023-08-17T10:51:14.212Z,100355.72
2023-08-17T10:54:16.998Z,100355.97
2023-08-17T10:57:52.433Z,100358.75
2023-08-17T11:00:56.629Z,100367.47
2023-08-17T11:04:18.201Z,100348.59
2023-08-17T11:07:21.037Z,100355.25
2023-08-17T11:10:23.905Z,100350.13
2023-08-17T11:13:30.663Z,100353.31
2023-08-17T11:16:33.481Z,100353.91
2023-08-17T11:19:40.791Z,100350.91
2023-08-17T11:22:43.701Z,100345.72
2023-08-17T11:25:46.629Z,100339.72
2023-08-17T11:28:49.477Z,100335.88
2023-08-17T11:31:52.421Z,100339.22
2023-08-17T11:34:59.567Z,100340.13
2023-08-17T11:38:08.138Z,100341.63
2023-08-17T11:41:18.415Z,100335.97
2023-08-17T11:44:24.347Z,100339.25
2023-08-17T11:47:32.642Z,100341.88
2023-08-17T11:50:39.844Z,100336.72
2023-08-17T11:56:51.527Z,100340.59
2023-08-17T11:59:56.476Z,100334.22
2023-08-17T12:02:59.319Z,100336.19
2023-08-17T12:06:02.177Z,100333.31
2023-08-17T12:09:06.752Z,100331.53
2023-08-17T12:12:11.082Z,100323.84
2023-08-17T12:15:13.857Z,100308.94
2023-08-17T12:18:17.289Z,100310.47
2023-08-17T12:21:27.275Z,100312.44
2023-08-17T12:24:31.320Z,100309.53
2023-08-17T12:27:34.304Z,100301.34
2023-08-17T12:30:38.698Z,100312.16
2023-08-17T12:33:41.452Z,100305.25
2023-08-17T12:36:45.174Z,100306.34
2023-08-17T12:39:49.025Z,100298.78
2023-08-17T12:42:51.812Z,100290.97
2023-08-17T12:45:54.547Z,100298.66
2023-08-17T12:48:57.266Z,100288.59
2023-08-17T12:52:00.203Z,100288.09
2023-08-17T12:55:03.165Z,100280.72
2023-08-17T12:58:06.953Z,100294.53
2023-08-17T13:01:09.810Z,100285.44
2023-08-17T13:04:12.528Z,100279.28
2023-08-17T13:07:15.694Z,100281.78
2023-08-17T13:10:18.522Z,100266.91
2023-08-17T13:13:21.878Z,100274.47
2023-08-17T13:16:24.640Z,100271.03
2023-08-17T13:19:27.441Z,100260.25
2023-08-17T13:22:30.246Z,100260.53
2023-08-17T13:25:33.344Z,100263.19
2023-08-17T13:28:36.058Z,100256.47
2023-08-17T13:31:38.923Z,100264.28
2023-08-17T13:34:41.713Z,100262.97
2023-08-17T13:37:44.606Z,100263.63
2023-08-17T13:40:47.342Z,100260.56
2023-08-17T13:43:50.091Z,100257.34
2023-08-17T13:46:52.822Z,100244.53
2023-08-17T13:49:56.985Z,100247.50
2023-08-17T13:53:01.590Z,100234.59
2023-08-17T13:56:04.578Z,100233.69
2023-08-17T13:59:07.312Z,100235.84
2023-08-17T14:02:10.021Z,100230.09
2023-08-17T14:05:12.704Z,100229.41
2023-08-17T14:08:15.542Z,100230.50
2023-08-17T14:11:18.357Z,100221.72
2023-08-17T14:14:21.520Z,100229.53
2023-08-17T14:17:24.301Z,100226.13
2023-08-17T14:20:28.154Z,100230.72
2023-08-17T14:23:30.904Z,100227.03
2023-08-17T14:26:33.741Z,100233.44
2023-08-17T14:29:36.426Z,100223.41
2023-08-17T14:32:39.164Z,100218.44
2023-08-17T14:35:42.717Z,100220.16
2023-08-17T14:38:45.447Z,100214.59
2023-08-17T14:41:48.179Z,100225.25
2023-08-17T14:44:50.901Z,100221.31
2023-08-17T14:47:53.779Z,100220.66
2023-08-17T14:50:56.991Z,100211.31
2023-08-17T14:53:59.865Z,100215.13
2023-08-17T14:57:02.985Z,100215.59
2023-08-17T15:00:06.440Z,100221.16
2023-08-17T15:03:09.333Z,100212.72
2023-08-17T15:06:20.343Z,100214.50
2023-08-17T15:09:34.824Z,100210.84
2023-08-17T15:12:37.563Z,100213.53
2023-08-17T15:15:40.538Z,100210.50
2023-08-17T15:18:43.325Z,100206.69
2023-08-17T15:21:46.060Z,100200.63
2023-08-17T15:24:49.055Z,100195.59
2023-08-17T15:27:53.116Z,100182.22
2023-08-17T15:31:06.773Z,100186.19
2023-08-17T15:34:09.536Z,100174.34
2023-08-17T15:37:12.671Z,100173.38
2023-08-17T15:40:15.487Z,100173.09
2023-08-17T15:43:18.174Z,100184.88
2023-08-17T15:46:21.005Z,100178.16
2023-08-17T15:49:23.794Z,100173.84
2023-08-17T15:52:26.483Z,100173.28
2023-08-17T15:55:29.312Z,100173.38
2023-08-17T15:58:31.995Z,100170.06
2023-08-17T16:01:34.804Z,100163.91
2023-08-17T16:04:37.642Z,100159.91
2023-08-17T16:07:40.378Z,100163.66
2023-08-17T16:10:43.146Z,100160.81
2023-08-17T16:13:46.448Z,100164.44
2023-08-17T16:16:49.913Z,100158.44
2023-08-17T16:19:52.655Z,100157.41
2023-08-17T16:22:55.381Z,100158.41
2023-08-17T16:25:58.112Z,100151.50
2023-08-17T16:29:00.912Z,100179.31
2023-08-17T16:35:10.547Z,100184.06
2023-08-17T16:38:13.547Z,100192.78
2023-08-17T16:41:16.530Z,100190.47
2023-08-17T16:44:20.934Z,100181.16
2023-08-17T16:47:27.694Z,100182.56
2023-08-17T16:50:34.209Z,100184.66
2023-08-17T16:53:44.035Z,100192.72
2023-08-17T16:56:47.366Z,100187.91
2023-08-17T16:59:50.083Z,100190.13
2023-08-17T17:02:52.851Z,100192.03
2023-08-17T17:05:55.816Z,100196.44
2023-08-17T17:08:58.621Z,100200.47
2023-08-17T17:12:01.490Z,100208.16
2023-08-17T17:15:05.195Z,100212.19
2023-08-17T17:18:08.081Z,100208.19
2023-08-17T17:21:12.761Z,100202.13
2023-08-17T17:24:15.536Z,100206.66
2023-08-17T17:27:26.758Z,100209.13
2023-08-17T17:30:29.922Z,100202.97
2023-08-17T17:33:33.134Z,100207.56
2023-08-17T17:36:35.909Z,100210.00
2023-08-17T17:39:38.642Z,100209.81
2023-08-17T17:42:41.472Z,100217.28
2023-08-17T17:45:44.233Z,100217.13
2023-08-17T17:48:47.247Z,100224.59
2023-08-17T17:51:50.179Z,100212.66
2023-08-17T17:54:52.920Z,100217.78
2023-08-17T17:57:57.143Z,100220.47
2023-08-17T18:01:00.108Z,100228.19
2023-08-17T18:04:04.919Z,100222.13
2023-08-17T18:07:07.898Z,100224.75
2023-08-17T18:10:11.088Z,100227.47
2023-08-17T18:13:13.822Z,100237.03
2023-08-17T18:16:16.708Z,100241.81
2023-08-17T18:19:19.696Z,100252.75
2023-08-17T18:22:22.486Z,100244.75
2023-08-17T18:25:26.449Z,100253.00
2023-08-17T18:28:29.613Z,100250.59
2023-08-17T18:31:32.444Z,100252.19
2023-08-17T18:34:35.505Z,100253.00
2023-08-17T18:37:38.255Z,100250.34
2023-08-17T18:40:45.608Z,100255.41
2023-08-17T18:43:48.571Z,100260.44
2023-08-17T18:46:51.791Z,100244.50
2023-08-17T18:49:54.702Z,100271.09
2023-08-17T18:53:00.462Z,100270.50
2023-08-17T18:56:03.331Z,100270.75
2023-08-17T18:59:06.176Z,100262.81
2023-08-17T19:02:09.075Z,100265.19
2023-08-17T19:05:11.870Z,100268.44
2023-08-17T19:08:14.899Z,100264.94
2023-08-17T19:11:17.635Z,100263.34
2023-08-17T19:14:20.366Z,100267.84
2023-08-17T19:17:23.135Z,100269.69
2023-08-17T19:20:26.089Z,100270.47
2023-08-17T19:23:29.020Z,100262.47
2023-08-17T19:26:32.051Z,100262.47
2023-08-17T19:29:35.069Z,100265.09
2023-08-17T19:32:40.979Z,100257.91
2023-08-17T19:35:46.095Z,100268.75
2023-08-17T19:38:49.360Z,100266.63
2023-08-17T19:41:52.281Z,100278.25
2023-08-17T19:44:55.336Z,100273.69
2023-08-17T19:47:58.083Z,100269.41
2023-08-17T19:51:00.840Z,100273.31
2023-08-17T19:54:03.740Z,100286.50
2023-08-17T19:57:06.516Z,100274.88
2023-08-17T20:00:13.217Z,100283.09
2023-08-17T20:03:16.102Z,100292.63
2023-08-17T20:06:19.207Z,100286.81
2023-08-17T20:09:22.038Z,100290.97
2023-08-17T20:12:25.121Z,100288.00
2023-08-17T20:15:27.880Z,100288.00
2023-08-17T20:18:30.615Z,100300.75
2023-08-17T20:21:34.365Z,100297.97
2023-08-17T20:24:37.917Z,100299.66
2023-08-17T20:27:44.036Z,100298.84
2023-08-17T20:30:47.380Z,100301.59
2023-08-17T20:33:50.322Z,100302.88
2023-08-17T20:36:53.067Z,100307.22
2023-08-17T20:39:55.801Z,100311.03
2023-08-17T20:42:58.641Z,100313.88
2023-08-17T20:46:01.781Z,100303.91
2023-08-17T20:49:05.711Z,100300.50
2023-08-17T20:52:08.992Z,100292.03
2023-08-17T20:55:12.041Z,100304.94
2023-08-17T20:58:14.873Z,100307.63
2023-08-17T21:01:19.719Z,100310.28
2023-08-17T21:04:22.754Z,100305.97
2023-08-17T21:07:27.609Z,100312.78
2023-08-17T21:10:32.849Z,100311.69
2023-08-17T21:13:37.034Z,100320.91
2023-08-17T21:16:40.354Z,100316.94
2023-08-17T21:19:43.505Z,100316.81
2023-08-17T21:22:52.993Z,100315.94
2023-08-17T21:25:55.704Z,100320.13
2023-08-17T21:28:58.568Z,100313.13
2023-08-17T21:32:01.261Z,100304.00
2023-08-17T21:35:04.085Z,100311.88
2023-08-17T21:38:07.096Z,100303.53
2023-08-17T21:41:09.867Z,100301.84
2023-08-17T21:44:12.597Z,100310.44
2023-08-17T21:47:15.486Z,100307.19
2023-08-17T21:50:18.997Z,100302.56
2023-08-17T21:53:22.784Z,100301.09
2023-08-17T21:56:25.706Z,100307.66
2023-08-17T21:59:28.665Z,100303.38
2023-08-17T22:02:31.478Z,100306.22
2023-08-17T22:05:34.392Z,100312.00
2023-08-17T22:08:37.312Z,100315.38
2023-08-17T22:11:40.087Z,100310.69
2023-08-17T22:14:42.892Z,100316.25
2023-08-17T22:17:45.819Z,100309.28
2023-08-17T22:20:48.789Z,100313.06
2023-08-17T22:23:51.502Z,100316.16
2023-08-17T22:26:54.236Z,100309.69
2023-08-17T22:29:58.178Z,100311.75
2023-08-17T22:33:01.025Z,100311.75
2023-08-17T22:36:04.471Z,100313.13
2023-08-17T22:39:07.233Z,100304.97
2023-08-17T22:42:10.221Z,100304.97
2023-08-17T22:45:13.379Z,100311.84
2023-08-17T22:48:17.633Z,100308.16
2023-08-17T22:51:20.474Z,100302.53
2023-08-17T22:54:23.194Z,100314.16
2023-08-17T22:57:26.079Z,100312.25
2023-08-17T23:00:29.165Z,100320.16
2023-08-17T23:03:32.194Z,100303.19
2023-08-17T23:06:35.053Z,100309.69
2023-08-17T23:09:37.923Z,100309.34
2023-08-17T23:12:40.795Z,100305.31
2023-08-17T23:15:43.579Z,100305.09
2023-08-17T23:18:46.327Z,100302.22
2023-08-17T23:21:49.062Z,100303.84
2023-08-17T23:24:51.758Z,100307.94
2023-08-17T23:27:54.548Z,100311.41
2023-08-17T23:31:03.249Z,100298.66
2023-08-17T23:34:06.731Z,100299.13
2023-08-17T23:37:09.466Z,100294.50
2023-08-17T23:40:12.686Z,100307.88
2023-08-17T23:43:15.488Z,100302.00
2023-08-17T23:46:18.311Z,100293.81
2023-08-17T23:49:21.032Z,100297.88
2023-08-17T23:52:23.752Z,100287.34
2023-08-17T23:55:26.497Z,100286.09
2023-08-17T23:58:29.269Z,100281.13
